createdAt,value
2023-05-12T00:00:12.726Z,32.18
2023-05-12T00:01:12.785Z,32.14
2023-05-12T00:02:12.787Z,32.14
2023-05-12T00:03:12.900Z,32.18
2023-05-12T00:04:12.962Z,32.22
2023-05-12T00:05:12.967Z,32.14
2023-05-12T00:06:13.016Z,32.16
2023-05-12T00:07:13.069Z,32.13
2023-05-12T00:08:13.114Z,32.19
2023-05-12T00:09:13.192Z,32.16
2023-05-12T00:10:13.223Z,32.21
2023-05-12T00:11:13.324Z,32.21
2023-05-12T00:12:13.371Z,32.19
2023-05-12T00:13:13.446Z,32.16
2023-05-12T00:14:13.425Z,32.19
2023-05-12T00:15:13.540Z,32.22
2023-05-12T00:16:13.576Z,32.19
2023-05-12T00:17:13.574Z,32.21
2023-05-12T00:18:13.666Z,32.22
2023-05-12T00:19:13.701Z,32.19
2023-05-12T00:20:13.770Z,32.28
2023-05-12T00:21:13.791Z,32.26
2023-05-12T00:22:13.835Z,32.25
2023-05-12T00:23:13.916Z,32.22
2023-05-12T00:24:13.947Z,32.21
2023-05-12T00:25:14.030Z,32.21
2023-05-12T00:26:14.057Z,32.25
2023-05-12T00:27:14.129Z,32.21
2023-05-12T00:28:14.160Z,32.24
2023-05-12T00:29:14.204Z,32.24
2023-05-12T00:30:14.312Z,32.25
2023-05-12T00:31:14.323Z,32.25
2023-05-12T00:32:14.420Z,32.19
2023-05-12T00:33:14.489Z,32.26
2023-05-12T00:34:14.531Z,32.29
2023-05-12T00:35:14.587Z,32.30
2023-05-12T00:36:14.596Z,32.26
2023-05-12T00:37:14.641Z,32.26
2023-05-12T00:38:14.760Z,32.27
2023-05-12T00:39:14.769Z,32.36
2023-05-12T00:40:14.837Z,32.29
2023-05-12T00:41:14.871Z,32.27
2023-05-12T00:42:14.954Z,32.26
2023-05-12T00:43:14.990Z,32.30
2023-05-12T00:44:15.063Z,32.29
2023-05-12T00:45:15.164Z,32.30
2023-05-12T00:46:15.230Z,32.26
2023-05-12T00:47:15.236Z,32.27
2023-05-12T00:48:15.300Z,32.26
2023-05-12T00:49:15.340Z,32.29
2023-05-12T00:50:15.374Z,32.33
2023-05-12T00:51:15.458Z,32.33
2023-05-12T00:52:15.483Z,32.30
2023-05-12T00:53:15.562Z,32.34
2023-05-12T00:54:15.648Z,32.33
2023-05-12T00:55:15.706Z,32.38
2023-05-12T00:56:15.768Z,32.36
2023-05-12T00:57:15.804Z,32.34
2023-05-12T00:58:15.881Z,32.30
2023-05-12T00:59:15.931Z,32.33
2023-05-12T01:00:16.012Z,32.36
2023-05-12T01:01:16.106Z,32.36
2023-05-12T01:02:16.173Z,32.31
2023-05-12T01:03:16.224Z,32.38
2023-05-12T01:04:16.305Z,32.30
2023-05-12T01:05:16.289Z,32.36
2023-05-12T01:06:16.343Z,32.37
2023-05-12T01:07:16.407Z,32.36
2023-05-12T01:08:16.458Z,32.34
2023-05-12T01:09:16.517Z,32.37
2023-05-12T01:10:16.616Z,32.38
2023-05-12T01:11:16.611Z,32.38
2023-05-12T01:12:16.689Z,32.35
2023-05-12T01:13:16.780Z,32.35
2023-05-12T01:14:16.836Z,32.36
2023-05-12T01:15:17.002Z,32.39
2023-05-12T01:16:16.948Z,32.35
2023-05-12T01:17:17.052Z,32.41
2023-05-12T01:18:17.111Z,32.41
2023-05-12T01:19:17.221Z,32.39
2023-05-12T01:20:17.357Z,32.38
2023-05-12T01:21:17.205Z,32.41
2023-05-12T01:22:17.383Z,32.42
2023-05-12T01:23:17.309Z,32.39
2023-05-12T01:24:17.391Z,32.39
2023-05-12T01:25:17.494Z,32.42
2023-05-12T01:26:17.558Z,32.40
2023-05-12T01:27:17.618Z,32.39
2023-05-12T01:28:17.653Z,32.36
2023-05-12T01:29:17.733Z,32.38
2023-05-12T01:30:18.033Z,32.41
2023-05-12T01:31:20.246Z,32.41
2023-05-12T01:32:17.855Z,32.43
2023-05-12T01:33:17.858Z,32.43
2023-05-12T01:34:17.821Z,32.39
2023-05-12T01:35:17.806Z,32.36
2023-05-12T01:36:17.859Z,32.42
2023-05-12T01:37:17.820Z,32.38
2023-05-12T01:38:17.800Z,32.42
2023-05-12T01:39:17.800Z,32.41
2023-05-12T01:40:18.092Z,32.42
2023-05-12T01:41:17.810Z,32.41
2023-05-12T01:42:17.772Z,32.43
2023-05-12T01:43:17.770Z,32.43
2023-05-12T01:44:17.756Z,32.42
2023-05-12T01:45:17.769Z,32.42
2023-05-12T01:46:17.813Z,32.46
2023-05-12T01:47:17.717Z,32.42
2023-05-12T01:48:17.735Z,32.42
2023-05-12T01:49:17.686Z,32.48
2023-05-12T01:50:17.842Z,32.46
2023-05-12T01:51:17.704Z,32.43
2023-05-12T01:52:17.701Z,32.45
2023-05-12T01:53:17.732Z,32.45
2023-05-12T01:54:17.681Z,32.43
2023-05-12T01:55:17.699Z,32.45
2023-05-12T01:56:17.681Z,32.43
2023-05-12T01:57:17.697Z,32.43
2023-05-12T01:58:17.709Z,32.46
2023-05-12T01:59:17.717Z,32.48
2023-05-12T02:00:18.058Z,32.49
2023-05-12T02:01:17.686Z,32.48
2023-05-12T02:02:17.733Z,32.46
2023-05-12T02:03:17.718Z,32.49
2023-05-12T02:04:17.714Z,32.45
2023-05-12T02:05:17.691Z,32.51
2023-05-12T02:06:17.771Z,32.53
2023-05-12T02:07:17.776Z,32.49
2023-05-12T02:08:17.838Z,32.43
2023-05-12T02:09:17.877Z,32.43
2023-05-12T02:10:18.166Z,32.46
2023-05-12T02:11:18.009Z,32.49
2023-05-12T02:12:18.037Z,32.50
2023-05-12T02:13:18.126Z,32.48
2023-05-12T02:14:18.167Z,32.49
2023-05-12T02:15:18.224Z,32.43
2023-05-12T02:16:18.291Z,32.50
2023-05-12T02:17:18.365Z,32.49
2023-05-12T02:18:18.389Z,32.48
2023-05-12T02:19:18.408Z,32.47
2023-05-12T02:20:18.718Z,32.47
2023-05-12T02:21:18.543Z,32.50
2023-05-12T02:22:18.558Z,32.47
2023-05-12T02:23:18.624Z,32.50
2023-05-12T02:24:18.643Z,32.56
2023-05-12T02:25:18.709Z,32.48
2023-05-12T02:26:18.742Z,32.50
2023-05-12T02:27:18.778Z,32.50
2023-05-12T02:28:18.770Z,32.53
2023-05-12T02:29:18.887Z,32.53
2023-05-12T02:30:19.044Z,32.51
2023-05-12T02:31:19.042Z,32.53
2023-05-12T02:32:19.016Z,32.53
2023-05-12T02:33:19.056Z,32.54
2023-05-12T02:34:19.110Z,32.57
2023-05-12T02:35:19.204Z,32.54
2023-05-12T02:36:19.215Z,32.54
2023-05-12T02:37:19.233Z,32.54
2023-05-12T02:38:19.261Z,32.53
2023-05-12T02:39:19.333Z,32.53
2023-05-12T02:40:19.451Z,32.56
2023-05-12T02:41:19.403Z,32.57
2023-05-12T02:42:19.450Z,32.60
2023-05-12T02:43:19.460Z,32.54
2023-05-12T02:44:19.510Z,32.53
2023-05-12T02:45:19.561Z,32.57
2023-05-12T02:46:19.625Z,32.57
2023-05-12T02:47:19.592Z,32.53
2023-05-12T02:48:19.642Z,32.53
2023-05-12T02:49:19.649Z,32.53
2023-05-12T02:50:19.981Z,32.56
2023-05-12T02:51:19.671Z,32.56
2023-05-12T02:52:19.646Z,32.54
2023-05-12T02:53:19.729Z,32.60
2023-05-12T02:54:19.747Z,32.64
2023-05-12T02:55:19.756Z,32.57
2023-05-12T02:56:19.742Z,32.53
2023-05-12T02:57:19.758Z,32.55
2023-05-12T02:58:19.780Z,32.56
2023-05-12T02:59:19.783Z,32.57
2023-05-12T03:00:19.917Z,32.58
2023-05-12T03:01:19.861Z,32.58
2023-05-12T03:02:19.866Z,32.57
2023-05-12T03:03:19.871Z,32.61
2023-05-12T03:04:19.849Z,32.59
2023-05-12T03:05:19.904Z,32.54
2023-05-12T03:06:19.858Z,32.58
2023-05-12T03:07:19.884Z,32.57
2023-05-12T03:08:19.882Z,32.57
2023-05-12T03:09:19.859Z,32.59
2023-05-12T03:10:20.127Z,32.58
2023-05-12T03:11:19.862Z,32.58
2023-05-12T03:12:19.889Z,32.55
2023-05-12T03:13:19.901Z,32.56
2023-05-12T03:14:19.884Z,32.58
2023-05-12T03:15:19.911Z,32.62
2023-05-12T03:16:19.975Z,32.62
2023-05-12T03:17:19.945Z,32.62
2023-05-12T03:18:20.017Z,32.61
2023-05-12T03:19:19.931Z,32.63
2023-05-12T03:20:20.267Z,32.57
2023-05-12T03:21:19.952Z,32.62
2023-05-12T03:22:19.974Z,32.62
2023-05-12T03:23:19.963Z,32.61
2023-05-12T03:24:19.965Z,32.54
2023-05-12T03:25:19.994Z,32.65
2023-05-12T03:26:19.994Z,32.61
2023-05-12T03:27:19.974Z,32.61
2023-05-12T03:28:19.988Z,32.63
2023-05-12T03:29:20.022Z,32.68
2023-05-12T03:30:20.276Z,32.65
2023-05-12T03:31:20.011Z,32.69
2023-05-12T03:32:20.058Z,32.65
2023-05-12T03:33:20.010Z,32.62
2023-05-12T03:34:20.023Z,32.63
2023-05-12T03:35:19.996Z,32.61
2023-05-12T03:36:19.994Z,32.62
2023-05-12T03:37:20.048Z,32.66
2023-05-12T03:38:19.964Z,32.65
2023-05-12T03:39:19.969Z,32.63
2023-05-12T03:40:20.111Z,32.63
2023-05-12T03:41:19.974Z,32.68
2023-05-12T03:42:19.947Z,32.66
2023-05-12T03:43:20.091Z,32.63
2023-05-12T03:44:19.957Z,32.63
2023-05-12T03:45:19.966Z,32.63
2023-05-12T03:46:20.058Z,32.69
2023-05-12T03:47:20.078Z,32.68
2023-05-12T03:48:20.030Z,32.66
2023-05-12T03:49:19.998Z,32.69
2023-05-12T03:50:20.154Z,32.69
2023-05-12T03:51:19.951Z,32.65
2023-05-12T03:52:19.947Z,32.65
2023-05-12T03:53:20.013Z,32.66
2023-05-12T03:54:19.977Z,32.63
2023-05-12T03:55:19.965Z,32.68
2023-05-12T03:56:19.970Z,32.66
2023-05-12T03:57:19.998Z,32.73
2023-05-12T03:58:19.972Z,32.62
2023-05-12T03:59:20.002Z,32.63
2023-05-12T04:00:20.274Z,32.65
2023-05-12T04:01:20.022Z,32.63
2023-05-12T04:02:20.036Z,32.70
2023-05-12T04:03:20.115Z,32.55
2023-05-12T04:04:19.990Z,32.52
2023-05-12T04:05:19.998Z,32.49
2023-05-12T04:06:20.011Z,32.35
2023-05-12T04:07:20.009Z,32.35
2023-05-12T04:08:20.026Z,32.37
2023-05-12T04:09:20.027Z,32.23
2023-05-12T04:10:20.320Z,32.17
2023-05-12T04:11:19.979Z,32.06
2023-05-12T04:12:20.050Z,32.06
2023-05-12T04:13:20.006Z,32.10
2023-05-12T04:14:26.495Z,31.92
2023-05-12T04:15:21.026Z,31.90
2023-05-12T04:16:20.079Z,31.85
2023-05-12T04:17:20.056Z,31.84
2023-05-12T04:18:20.079Z,31.84
2023-05-12T04:19:19.996Z,31.70
2023-05-12T04:20:20.179Z,31.75
2023-05-12T04:21:20.005Z,31.66
2023-05-12T04:22:20.006Z,31.66
2023-05-12T04:23:20.020Z,31.67
2023-05-12T04:24:19.960Z,31.70
2023-05-12T04:25:19.969Z,31.60
2023-05-12T04:26:19.977Z,31.56
2023-05-12T04:27:19.959Z,31.59
2023-05-12T04:28:19.945Z,31.50
2023-05-12T04:29:19.965Z,31.49
2023-05-12T04:30:20.226Z,31.46
2023-05-12T04:31:20.029Z,31.46
2023-05-12T04:32:20.104Z,31.51
2023-05-12T04:33:19.930Z,31.54
2023-05-12T04:34:19.970Z,31.56
2023-05-12T04:35:19.911Z,31.57
2023-05-12T04:36:19.928Z,31.56
2023-05-12T04:37:19.951Z,31.56
2023-05-12T04:38:19.967Z,31.52
2023-05-12T04:39:20.025Z,31.60
2023-05-12T04:40:20.265Z,31.56
2023-05-12T04:41:19.988Z,31.52
2023-05-12T04:42:20.012Z,31.47
2023-05-12T04:44:20.007Z,31.48
2023-05-12T04:45:20.324Z,31.54
2023-05-12T04:46:20.055Z,31.48
2023-05-12T04:47:20.061Z,31.46
2023-05-12T04:48:19.981Z,31.47
2023-05-12T04:49:19.987Z,31.45
2023-05-12T04:50:19.964Z,31.47
2023-05-12T04:51:20.039Z,31.48
2023-05-12T04:52:20.013Z,31.48
2023-05-12T04:53:19.963Z,31.49
2023-05-12T04:54:19.972Z,31.45
2023-05-12T04:55:20.095Z,31.43
2023-05-12T04:56:19.976Z,31.46
2023-05-12T04:57:19.994Z,31.45
2023-05-12T04:58:19.950Z,31.48
2023-05-12T04:59:19.992Z,31.46
2023-05-12T05:00:19.968Z,31.45
2023-05-12T05:01:19.954Z,31.44
2023-05-12T05:02:19.932Z,31.46
2023-05-12T05:03:20.123Z,31.47
2023-05-12T05:04:19.929Z,31.41
2023-05-12T05:05:20.032Z,31.44
2023-05-12T05:06:19.906Z,31.48
2023-05-12T05:07:19.924Z,31.50
2023-05-12T05:08:19.911Z,31.43
2023-05-12T05:09:20.132Z,31.43
2023-05-12T05:10:19.863Z,31.45
2023-05-12T05:11:19.842Z,31.45
2023-05-12T05:12:19.865Z,31.41
2023-05-12T05:13:19.852Z,31.40
2023-05-12T05:14:19.820Z,31.43
2023-05-12T05:15:20.126Z,31.47
2023-05-12T05:16:19.859Z,31.43
2023-05-12T05:17:19.827Z,31.40
2023-05-12T05:18:21.690Z,31.38
2023-05-12T05:19:26.321Z,31.40
2023-05-12T05:20:20.879Z,31.39
2023-05-12T05:21:19.810Z,31.39
2023-05-12T05:22:19.798Z,31.40
2023-05-12T05:23:19.783Z,31.39
2023-05-12T05:24:19.827Z,31.37
2023-05-12T05:25:20.122Z,31.35
2023-05-12T05:26:19.763Z,31.34
2023-05-12T05:27:19.732Z,31.28
2023-05-12T05:28:19.881Z,31.37
2023-05-12T05:29:19.733Z,31.32
2023-05-12T05:30:19.788Z,31.32
2023-05-12T05:31:19.861Z,31.44
2023-05-12T05:32:19.882Z,31.83
2023-05-12T05:33:19.951Z,31.85
2023-05-12T05:34:20.066Z,32.03
2023-05-12T05:35:20.130Z,32.27
2023-05-12T05:36:20.082Z,32.20
2023-05-12T05:37:20.048Z,32.40
2023-05-12T05:38:20.129Z,32.48
2023-05-12T05:39:20.196Z,32.47
2023-05-12T05:40:20.226Z,32.32
2023-05-12T05:41:21.152Z,32.17
2023-05-12T05:42:20.390Z,32.32
2023-05-12T05:43:20.454Z,32.37
2023-05-12T05:44:20.460Z,32.50
2023-05-12T05:45:20.894Z,32.78
2023-05-12T05:46:20.606Z,33.06
2023-05-12T05:47:20.589Z,33.27
2023-05-12T05:48:21.197Z,33.22
2023-05-12T05:49:20.568Z,33.20
2023-05-12T05:50:20.603Z,33.20
2023-05-12T05:51:20.650Z,33.25
2023-05-12T05:52:20.732Z,33.26
2023-05-12T05:53:20.661Z,33.30
2023-05-12T05:54:20.729Z,33.29
2023-05-12T05:55:20.849Z,33.23
2023-05-12T05:56:21.255Z,33.28
2023-05-12T05:57:21.210Z,33.26
2023-05-12T05:58:21.268Z,33.19
2023-05-12T05:59:20.808Z,33.18
2023-05-12T06:00:21.185Z,33.37
2023-05-12T06:01:20.953Z,33.46
2023-05-12T06:02:21.085Z,33.49
2023-05-12T06:03:21.135Z,33.49
2023-05-12T06:04:21.196Z,33.37
2023-05-12T06:05:21.253Z,33.26
2023-05-12T06:06:21.117Z,33.23
2023-05-12T06:07:22.276Z,33.21
2023-05-12T06:08:21.182Z,33.20
2023-05-12T06:09:21.159Z,33.21
2023-05-12T06:10:21.382Z,33.24
2023-05-12T06:11:21.229Z,33.41
2023-05-12T06:12:21.178Z,33.46
2023-05-12T06:13:21.194Z,33.52
2023-05-12T06:14:21.235Z,33.54
2023-05-12T06:15:21.466Z,33.66
2023-05-12T06:16:21.268Z,33.61
2023-05-12T06:17:21.260Z,33.61
2023-05-12T06:18:21.250Z,33.60
2023-05-12T06:19:21.250Z,33.72
2023-05-12T06:20:21.250Z,33.75
2023-05-12T06:21:21.327Z,33.62
2023-05-12T06:22:21.341Z,33.76
2023-05-12T06:23:21.332Z,33.82
2023-05-12T06:24:21.343Z,33.88
2023-05-12T06:25:21.649Z,33.90
2023-05-12T06:26:21.373Z,33.82
2023-05-12T06:27:21.408Z,33.86
2023-05-12T06:28:21.493Z,33.79
2023-05-12T06:29:21.483Z,33.86
2023-05-12T06:30:21.566Z,33.95
2023-05-12T06:31:21.551Z,33.92
2023-05-12T06:32:21.672Z,34.00
2023-05-12T06:33:21.658Z,34.01
2023-05-12T06:34:21.692Z,33.97
2023-05-12T06:35:21.750Z,34.25
2023-05-12T06:36:21.733Z,34.14
2023-05-12T06:37:21.679Z,34.28
2023-05-12T06:38:21.775Z,34.03
2023-05-12T06:39:21.763Z,34.06
2023-05-12T06:40:21.769Z,34.01
2023-05-12T06:41:21.874Z,33.56
2023-05-12T06:42:21.877Z,33.44
2023-05-12T06:43:22.183Z,34.04
2023-05-12T06:44:21.916Z,33.32
2023-05-12T06:45:22.261Z,33.29
2023-05-12T06:46:22.018Z,33.48
2023-05-12T06:47:22.090Z,33.50
2023-05-12T06:48:22.055Z,33.58
2023-05-12T06:49:22.676Z,33.54
2023-05-12T06:50:22.129Z,33.65
2023-05-12T06:51:22.177Z,33.65
2023-05-12T06:52:22.662Z,33.62
2023-05-12T06:53:24.087Z,33.68
2023-05-12T06:54:22.216Z,33.65
2023-05-12T06:55:22.753Z,33.58
2023-05-12T06:56:22.202Z,33.71
2023-05-12T06:57:22.187Z,33.82
2023-05-12T06:58:22.269Z,33.71
2023-05-12T06:59:22.197Z,33.73
2023-05-12T07:00:22.227Z,33.62
2023-05-12T07:01:22.292Z,33.58
2023-05-12T07:02:22.165Z,33.58
2023-05-12T07:03:22.250Z,33.72
2023-05-12T07:04:22.119Z,33.65
2023-05-12T07:05:22.285Z,33.75
2023-05-12T07:06:22.141Z,33.82
2023-05-12T07:07:22.154Z,33.82
2023-05-12T07:08:22.136Z,33.84
2023-05-12T07:09:22.094Z,33.80
2023-05-12T07:10:22.088Z,33.85
2023-05-12T07:11:22.104Z,33.86
2023-05-12T07:12:22.191Z,33.81
2023-05-12T07:13:22.082Z,33.81
2023-05-12T07:14:22.109Z,33.74
2023-05-12T07:15:22.264Z,33.82
2023-05-12T07:16:22.103Z,33.84
2023-05-12T07:17:22.086Z,33.76
2023-05-12T07:18:22.089Z,33.70
2023-05-12T07:19:22.052Z,33.71
2023-05-12T07:20:22.034Z,33.65
2023-05-12T07:21:22.030Z,33.65
2023-05-12T07:22:22.050Z,33.59
2023-05-12T07:23:22.038Z,33.51
2023-05-12T07:24:21.999Z,33.56
2023-05-12T07:25:22.272Z,33.82
2023-05-12T07:26:21.999Z,33.74
2023-05-12T07:27:21.999Z,33.88
2023-05-12T07:28:21.975Z,33.98
2023-05-12T07:29:22.008Z,33.82
2023-05-12T07:30:21.987Z,34.11
2023-05-12T07:31:22.568Z,33.63
2023-05-12T07:32:22.037Z,33.52
2023-05-12T07:33:21.921Z,33.31
2023-05-12T07:34:21.966Z,33.09
2023-05-12T07:35:22.249Z,31.25
2023-05-12T07:36:22.177Z,31.76
2023-05-12T07:37:22.706Z,31.53
2023-05-12T07:38:22.021Z,31.61
2023-05-12T07:39:22.067Z,31.17
2023-05-12T07:40:22.110Z,30.64
2023-05-12T07:41:22.143Z,30.21
2023-05-12T07:42:22.196Z,30.05
2023-05-12T07:43:22.198Z,30.09
2023-05-12T07:44:22.330Z,29.88
2023-05-12T07:45:22.322Z,29.67
2023-05-12T07:46:22.403Z,29.55
2023-05-12T07:47:22.478Z,29.20
2023-05-12T07:48:22.501Z,29.05
2023-05-12T07:49:22.567Z,29.05
2023-05-12T07:50:22.654Z,28.85
2023-05-12T07:51:22.684Z,28.91
2023-05-12T07:52:22.766Z,28.82
2023-05-12T07:53:22.864Z,28.83
2023-05-12T07:54:22.981Z,28.76
2023-05-12T07:55:23.185Z,28.85
2023-05-12T07:56:23.036Z,28.66
2023-05-12T07:57:23.108Z,28.64
2023-05-12T07:58:23.082Z,28.53
2023-05-12T07:59:23.084Z,28.66
2023-05-12T08:00:23.503Z,28.57
2023-05-12T08:01:23.165Z,28.50
2023-05-12T08:02:23.339Z,28.43
2023-05-12T08:03:23.310Z,28.40
2023-05-12T08:04:23.311Z,28.44
2023-05-12T08:05:23.331Z,28.41
2023-05-12T08:06:24.935Z,28.39
2023-05-12T08:07:23.315Z,28.30
2023-05-12T08:08:23.321Z,28.41
2023-05-12T08:09:23.400Z,28.40
2023-05-12T08:10:23.343Z,28.31
2023-05-12T08:11:23.402Z,28.33
2023-05-12T08:12:23.414Z,28.16
2023-05-12T08:13:23.440Z,28.30
2023-05-12T08:14:23.436Z,28.38
2023-05-12T08:15:23.466Z,28.38
2023-05-12T08:16:23.665Z,28.41
2023-05-12T08:17:23.683Z,28.28
2023-05-12T08:18:23.645Z,28.24
2023-05-12T08:19:23.585Z,28.12
2023-05-12T08:20:23.623Z,27.96
2023-05-12T08:21:23.653Z,27.92
2023-05-12T08:22:23.675Z,27.84
2023-05-12T08:23:23.801Z,27.81
2023-05-12T08:24:23.766Z,27.84
2023-05-12T08:25:23.811Z,28.21
2023-05-12T08:26:24.193Z,27.67
2023-05-12T08:27:23.825Z,27.77
2023-05-12T08:28:23.866Z,27.77
2023-05-12T08:29:23.973Z,27.21
2023-05-12T08:30:23.971Z,26.98
2023-05-12T08:31:24.002Z,27.21
2023-05-12T08:32:24.170Z,27.29
2023-05-12T08:33:24.069Z,27.51
2023-05-12T08:34:24.164Z,27.48
2023-05-12T08:35:24.142Z,27.15
2023-05-12T08:36:24.186Z,27.13
2023-05-12T08:37:24.190Z,27.04
2023-05-12T08:38:24.205Z,26.86
2023-05-12T08:39:24.223Z,26.58
2023-05-12T08:40:24.242Z,26.34
2023-05-12T08:41:24.228Z,26.54
2023-05-12T08:42:24.230Z,26.01
2023-05-12T08:43:24.250Z,26.22
2023-05-12T08:44:24.306Z,26.70
2023-05-12T08:45:24.346Z,27.01
2023-05-12T08:46:24.363Z,27.45
2023-05-12T08:47:24.713Z,27.88
2023-05-12T08:48:24.443Z,27.99
2023-05-12T08:49:24.470Z,28.29
2023-05-12T08:50:24.500Z,28.48
2023-05-12T08:51:24.525Z,28.69
2023-05-12T08:52:24.570Z,28.99
2023-05-12T08:53:24.574Z,28.77
2023-05-12T08:54:24.548Z,28.89
2023-05-12T08:55:29.576Z,28.78
2023-05-12T08:57:24.580Z,28.50
2023-05-12T08:58:30.617Z,28.47
2023-05-12T08:59:25.566Z,28.50
2023-05-12T09:00:24.717Z,28.80
2023-05-12T09:01:24.585Z,28.93
2023-05-12T09:02:24.778Z,28.86
2023-05-12T09:03:24.558Z,28.74
2023-05-12T09:04:24.658Z,28.81
2023-05-12T09:05:24.517Z,28.64
2023-05-12T09:06:24.532Z,28.52
2023-05-12T09:07:24.555Z,28.19
2023-05-12T09:08:24.495Z,28.12
2023-05-12T09:09:24.533Z,28.08
2023-05-12T09:11:24.533Z,28.20
2023-05-12T09:12:24.561Z,28.12
2023-05-12T09:13:24.527Z,28.50
2023-05-12T09:14:24.533Z,28.40
2023-05-12T09:15:24.482Z,28.52
2023-05-12T09:16:24.556Z,28.44
2023-05-12T09:17:24.524Z,28.23
2023-05-12T09:18:24.500Z,28.20
2023-05-12T09:19:24.519Z,28.39
2023-05-12T09:21:25.486Z,28.13
2023-05-12T09:22:24.501Z,28.03
2023-05-12T09:23:24.477Z,28.25
2023-05-12T09:24:24.450Z,28.21
2023-05-12T09:25:24.496Z,28.29
2023-05-12T09:26:24.429Z,28.27
2023-05-12T09:27:24.451Z,28.20
2023-05-12T09:28:24.418Z,28.16
2023-05-12T09:29:31.197Z,27.71
2023-05-12T09:30:27.227Z,27.59
2023-05-12T09:31:24.448Z,27.67
2023-05-12T09:32:24.427Z,27.45
2023-05-12T09:33:24.399Z,27.20
2023-05-12T09:34:24.381Z,27.21
2023-05-12T09:35:24.386Z,27.35
2023-05-12T09:36:24.521Z,27.70
2023-05-12T09:37:24.391Z,27.86
2023-05-12T09:38:24.367Z,27.80
2023-05-12T09:39:24.378Z,27.64
2023-05-12T09:40:24.347Z,27.62
2023-05-12T09:41:24.332Z,27.85
2023-05-12T09:42:24.349Z,27.54
2023-05-12T09:43:24.786Z,27.28
2023-05-12T09:44:24.404Z,27.04
2023-05-12T09:45:24.312Z,27.14
2023-05-12T09:46:24.356Z,27.35
2023-05-12T09:47:24.381Z,27.60
2023-05-12T09:48:26.844Z,27.15
2023-05-12T09:49:24.276Z,27.20
2023-05-12T09:50:24.302Z,27.36
2023-05-12T09:51:24.282Z,27.33
2023-05-12T09:52:24.309Z,28.17
2023-05-12T09:53:24.775Z,28.15
2023-05-12T09:54:24.343Z,28.21
2023-05-12T09:55:24.239Z,28.54
2023-05-12T09:56:24.240Z,28.70
2023-05-12T09:57:24.222Z,28.80
2023-05-12T09:58:24.247Z,28.83
2023-05-12T09:59:24.199Z,28.56
2023-05-12T10:00:38.453Z,28.67
2023-05-12T10:01:25.451Z,28.31
2023-05-12T10:02:24.326Z,28.23
2023-05-12T10:03:24.289Z,28.59
2023-05-12T10:04:24.208Z,28.57
2023-05-12T10:05:24.168Z,28.63
2023-05-12T10:06:24.175Z,28.72
2023-05-12T10:07:24.145Z,28.75
2023-05-12T10:08:24.200Z,28.60
2023-05-12T10:09:24.158Z,28.79
2023-05-12T10:10:24.798Z,28.85
2023-05-12T10:11:24.148Z,28.66
2023-05-12T10:12:24.132Z,28.61
2023-05-12T10:13:24.210Z,28.69
2023-05-12T10:14:24.265Z,28.59
2023-05-12T10:15:24.290Z,28.59
2023-05-12T10:16:24.321Z,28.58
2023-05-12T10:17:24.395Z,28.68
2023-05-12T10:18:24.372Z,28.63
2023-05-12T10:19:24.363Z,28.68
2023-05-12T10:20:24.368Z,28.85
2023-05-12T10:21:24.411Z,29.02
2023-05-12T10:22:24.469Z,29.60
2023-05-12T10:23:24.525Z,29.21
2023-05-12T10:24:24.560Z,29.25
2023-05-12T10:25:24.783Z,29.11
2023-05-12T10:26:24.612Z,28.71
2023-05-12T10:27:24.563Z,28.81
2023-05-12T10:28:24.623Z,29.03
2023-05-12T10:29:24.629Z,29.14
2023-05-12T10:30:24.679Z,29.26
2023-05-12T10:31:24.736Z,29.43
2023-05-12T10:32:24.784Z,29.18
2023-05-12T10:33:24.855Z,28.70
2023-05-12T10:34:24.889Z,28.66
2023-05-12T10:35:24.974Z,28.85
2023-05-12T10:36:24.954Z,28.67
2023-05-12T10:37:25.065Z,28.64
2023-05-12T10:38:25.104Z,28.69
2023-05-12T10:39:25.102Z,28.60
2023-05-12T10:40:25.179Z,28.57
2023-05-12T10:41:25.152Z,28.40
2023-05-12T10:42:25.203Z,28.47
2023-05-12T10:43:25.227Z,28.58
2023-05-12T10:44:25.295Z,28.67
2023-05-12T10:45:25.770Z,28.60
2023-05-12T10:46:25.821Z,28.71
2023-05-12T10:47:25.322Z,28.53
2023-05-12T10:48:25.306Z,28.34
2023-05-12T10:49:25.315Z,28.29
2023-05-12T10:50:25.358Z,28.33
2023-05-12T10:51:25.346Z,27.86
2023-05-12T10:52:25.451Z,28.08
2023-05-12T10:53:28.612Z,28.10
2023-05-12T10:54:26.447Z,27.83
2023-05-12T10:55:25.865Z,27.97
2023-05-12T10:56:25.684Z,28.20
2023-05-12T10:57:25.531Z,28.00
2023-05-12T10:58:25.948Z,27.86
2023-05-12T10:59:25.936Z,27.80
2023-05-12T11:00:25.995Z,27.71
2023-05-12T11:01:26.343Z,27.61
2023-05-12T11:02:26.184Z,27.71
2023-05-12T11:03:26.176Z,27.59
2023-05-12T11:04:25.480Z,27.20
2023-05-12T11:05:25.747Z,27.13
2023-05-12T11:06:25.692Z,27.04
2023-05-12T11:07:26.338Z,27.02
2023-05-12T11:08:26.656Z,26.81
2023-05-12T11:09:25.465Z,26.83
2023-05-12T11:10:26.628Z,26.69
2023-05-12T11:11:25.390Z,26.78
2023-05-12T11:12:25.336Z,26.69
2023-05-12T11:13:25.340Z,26.76
2023-05-12T11:14:25.331Z,26.64
2023-05-12T11:15:25.375Z,26.64
2023-05-12T11:16:25.447Z,26.60
2023-05-12T11:17:25.842Z,26.53
2023-05-12T11:18:25.546Z,26.50
2023-05-12T11:19:25.517Z,26.82
2023-05-12T11:20:26.426Z,26.70
2023-05-12T11:21:25.558Z,26.59
2023-05-12T11:22:25.567Z,26.35
2023-05-12T11:23:25.686Z,26.45
2023-05-12T11:24:25.716Z,26.31
2023-05-12T11:25:25.782Z,26.41
2023-05-12T11:26:25.919Z,26.46
2023-05-12T11:27:25.907Z,26.36
2023-05-12T11:28:25.950Z,26.42
2023-05-12T11:29:25.961Z,26.36
2023-05-12T11:30:26.046Z,26.31
2023-05-12T11:31:26.205Z,26.38
2023-05-12T11:32:26.298Z,26.44
2023-05-12T11:33:26.156Z,26.45
2023-05-12T11:34:26.237Z,26.46
2023-05-12T11:35:26.281Z,26.54
2023-05-12T11:36:26.313Z,26.54
2023-05-12T11:37:26.346Z,26.60
2023-05-12T11:38:26.373Z,26.59
2023-05-12T11:39:26.403Z,26.42
2023-05-12T11:40:26.446Z,26.52
2023-05-12T11:41:26.469Z,26.50
2023-05-12T11:42:26.531Z,26.48
2023-05-12T11:43:26.581Z,26.51
2023-05-12T11:44:26.582Z,26.54
2023-05-12T11:45:26.650Z,26.51
2023-05-12T11:46:26.745Z,26.50
2023-05-12T11:47:26.690Z,26.47
2023-05-12T11:48:26.708Z,26.46
2023-05-12T11:49:26.762Z,26.43
2023-05-12T11:50:26.800Z,26.39
2023-05-12T11:51:26.865Z,26.32
2023-05-12T11:52:26.858Z,26.27
2023-05-12T11:53:27.749Z,26.08
2023-05-12T11:54:26.906Z,26.28
2023-05-12T11:55:26.886Z,26.26
2023-05-12T11:56:26.970Z,26.20
2023-05-12T11:57:26.994Z,26.27
2023-05-12T11:58:27.077Z,26.16
2023-05-12T11:59:27.014Z,26.19
2023-05-12T12:00:27.049Z,26.19
2023-05-12T12:01:27.094Z,26.28
2023-05-12T12:02:27.190Z,26.13
2023-05-12T12:03:27.192Z,26.30
2023-05-12T12:04:27.169Z,26.19
2023-05-12T12:05:27.136Z,26.41
2023-05-12T12:06:27.187Z,26.22
2023-05-12T12:07:27.208Z,26.26
2023-05-12T12:08:27.218Z,26.41
2023-05-12T12:09:27.228Z,26.50
2023-05-12T12:10:27.191Z,26.64
2023-05-12T12:11:27.246Z,26.73
2023-05-12T12:12:27.201Z,26.93
2023-05-12T12:13:27.218Z,26.93
2023-05-12T12:14:27.230Z,27.09
2023-05-12T12:15:27.228Z,27.05
2023-05-12T12:16:27.322Z,27.17
2023-05-12T12:17:27.298Z,27.12
2023-05-12T12:18:27.288Z,27.22
2023-05-12T12:19:27.235Z,27.30
2023-05-12T12:20:27.245Z,27.39
2023-05-12T12:21:27.248Z,27.42
2023-05-12T12:22:27.241Z,27.44
2023-05-12T12:23:27.274Z,27.44
2023-05-12T12:24:27.391Z,27.30
2023-05-12T12:25:27.445Z,27.29
2023-05-12T12:26:27.481Z,27.28
2023-05-12T12:27:27.559Z,27.31
2023-05-12T12:28:27.590Z,27.28
2023-05-12T12:29:27.667Z,27.27
2023-05-12T12:30:27.718Z,27.34
2023-05-12T12:31:27.780Z,27.33
2023-05-12T12:32:27.849Z,27.31
2023-05-12T12:33:27.877Z,27.37
2023-05-12T12:34:27.913Z,27.38
2023-05-12T12:35:27.968Z,27.30
2023-05-12T12:36:27.977Z,27.33
2023-05-12T12:37:28.047Z,27.32
2023-05-12T12:38:28.111Z,27.28
2023-05-12T12:39:28.108Z,27.26
2023-05-12T12:40:28.186Z,27.28
2023-05-12T12:41:28.185Z,27.28
2023-05-12T12:42:28.243Z,27.27
2023-05-12T12:43:28.304Z,27.27
2023-05-12T12:44:28.325Z,27.25
2023-05-12T12:45:28.354Z,27.27
2023-05-12T12:46:28.465Z,27.28
2023-05-12T12:47:28.453Z,27.25
2023-05-12T12:48:28.485Z,27.34
2023-05-12T12:49:28.524Z,27.35
2023-05-12T12:50:28.556Z,27.41
2023-05-12T12:51:42.155Z,27.38
2023-05-12T12:52:29.587Z,27.33
2023-05-12T12:53:28.585Z,27.37
2023-05-12T12:54:28.577Z,27.38
2023-05-12T12:55:28.562Z,27.38
2023-05-12T12:56:28.533Z,27.42